Time;durP1;ratioP1;P1;durP2;ratioP2;P2;SDS_P1;SDS_P2;PMS_P1;PMS_P2;Temp;Humidity;BMP_temperature;BMP_pressure;BME280_temperature;BME280_humidity;BME280_pressure;Samples;Min_cycle;Max_cycle;Signal;HPM_P1;HPM_P2
2023/01/07 05:30:24;;;;;;;5.55;2.40;;;11.20;82.20;;;;;;5903743;23;20019;-77
2023/01/07 05:32:50;;;;;;;6.43;2.80;;;11.10;82.50;;;;;;4935041;29;20111;-77
2023/01/07 05:35:15;;;;;;;5.50;2.78;;;11.10;82.60;;;;;;4921256;29;20168;-76
2023/01/07 05:37:41;;;;;;;4.55;2.42;;;11.10;82.60;;;;;;4920443;29;20028;-76
2023/01/07 05:40:07;;;;;;;6.20;2.67;;;11.10;82.70;;;;;;4920045;29;20043;-76
2023/01/07 05:42:33;;;;;;;7.85;2.60;;;11.20;82.60;;;;;;4904028;29;20024;-77
2023/01/07 05:44:59;;;;;;;2.83;2.00;;;10.90;83.00;;;;;;4920946;29;20475;-77
2023/01/07 05:47:24;;;;;;;5.63;2.92;;;11.10;83.00;;;;;;4920826;29;20123;-77
2023/01/07 05:49:50;;;;;;;3.63;2.08;;;11.10;83.00;;;;;;4921169;29;20398;-76
2023/01/07 05:52:16;;;;;;;7.78;2.03;;;11.10;83.10;;;;;;4903029;29;20420;-77
2023/01/07 05:54:42;;;;;;;5.28;2.00;;;11.20;82.90;;;;;;4931373;29;20093;-77
2023/01/07 05:57:07;;;;;;;8.35;2.20;;;11.10;82.90;;;;;;4939200;29;20032;-77
2023/01/07 05:59:34;;;;;;;5.15;2.40;;;11.10;83.30;;;;;;4935633;29;20027;-77
2023/01/07 06:02:03;;;;;;;3.70;2.30;;;11.20;83.20;;;;;;4929592;29;20039;-77
2023/01/07 06:04:28;;;;;;;2.78;2.20;;;11.20;82.80;;;;;;4920761;29;20027;-77
2023/01/07 06:06:54;;;;;;;7.22;2.72;;;11.30;82.80;;;;;;4935326;29;20032;-76
2023/01/07 06:09:21;;;;;;;6.55;2.60;;;11.20;83.00;;;;;;4921012;29;20056;-76
2023/01/07 06:11:46;;;;;;;3.45;2.50;;;11.10;83.10;;;;;;4932878;29;20394;-76
2023/01/07 06:14:12;;;;;;;6.97;2.72;;;11.20;83.20;;;;;;4939936;29;20127;-76
2023/01/07 06:16:38;;;;;;;5.82;2.60;;;11.20;83.20;;;;;;4924428;29;20506;-77
2023/01/07 06:19:03;;;;;;;3.08;2.28;;;11.20;83.10;;;;;;4922240;29;20408;-77
2023/01/07 06:21:29;;;;;;;6.05;3.30;;;11.20;83.10;;;;;;4939937;29;20127;-77
2023/01/07 06:23:55;;;;;;;8.05;3.15;;;11.10;83.20;;;;;;4936815;29;20886;-76
2023/01/07 06:26:21;;;;;;;4.13;2.50;;;11.20;83.20;;;;;;4950864;29;20132;-77
2023/01/07 06:28:46;;;;;;;3.63;3.10;;;11.20;83.00;;;;;;4921483;29;20036;-76
2023/01/07 06:31:12;;;;;;;4.85;3.10;;;11.20;83.00;;;;;;4922824;29;20590;-76
2023/01/07 06:33:39;;;;;;;5.25;2.35;;;11.10;83.00;;;;;;4922385;29;20031;-76
2023/01/07 06:36:05;;;;;;;8.32;3.47;;;11.00;83.50;;;;;;4925723;29;20044;-76
2023/01/07 06:38:31;;;;;;;6.47;2.60;;;11.10;83.50;;;;;;4922317;29;20031;-76
2023/01/07 06:41:01;;;;;;;5.60;3.60;;;11.00;83.40;;;;;;4939230;29;20079;-76
2023/01/07 06:43:27;;;;;;;6.05;2.63;;;11.10;83.50;;;;;;4917536;29;20055;-76
2023/01/07 06:45:54;;;;;;;4.60;3.50;;;11.10;83.40;;;;;;4920343;29;20040;-76
2023/01/07 06:48:19;;;;;;;4.35;2.45;;;10.90;83.70;;;;;;4920061;29;20404;-80
2023/01/07 06:50:45;;;;;;;7.10;3.67;;;10.80;84.20;;;;;;4917768;29;20198;-84
2023/01/07 06:53:11;;;;;;;5.82;3.22;;;10.90;83.90;;;;;;4938353;29;20034;-77
2023/01/07 06:55:37;;;;;;;6.18;3.20;;;11.00;83.60;;;;;;4939056;29;20036;-78
2023/01/07 06:58:02;;;;;;;4.47;3.42;;;11.00;83.60;;;;;;4930463;29;20032;-78
2023/01/07 07:00:31;;;;;;;8.32;3.53;;;10.90;83.70;;;;;;4919752;29;20031;-79
2023/01/07 07:02:57;;;;;;;5.45;3.45;;;11.00;83.40;;;;;;4935913;29;20029;-78
2023/01/07 07:05:22;;;;;;;6.28;3.40;;;10.90;83.30;;;;;;4917284;29;20032;-78
2023/01/07 07:07:48;;;;;;;9.18;3.45;;;11.00;83.20;;;;;;4919862;29;20035;-77
2023/01/07 07:10:14;;;;;;;4.38;3.13;;;11.00;83.00;;;;;;4921036;29;20028;-77
2023/01/07 07:12:39;;;;;;;12.63;4.72;;;11.00;83.20;;;;;;4930372;29;20036;-76
2023/01/07 07:15:07;;;;;;;5.40;3.92;;;10.90;83.20;;;;;;4938405;29;20501;-76
2023/01/07 07:17:35;;;;;;;9.38;4.15;;;10.80;83.50;;;;;;4935689;29;20032;-76
2023/01/07 07:20:01;;;;;;;5.85;3.00;;;10.80;83.60;;;;;;4937685;29;20036;-74
2023/01/07 07:22:27;;;;;;;5.22;3.03;;;10.70;83.90;;;;;;4937690;29;20039;-74
2023/01/07 07:24:53;;;;;;;6.60;3.67;;;10.60;84.30;;;;;;4935670;29;20079;-74
2023/01/07 07:27:18;;;;;;;5.78;4.15;;;10.70;84.60;;;;;;4936749;29;20050;-74
2023/01/07 07:29:44;;;;;;;6.28;3.67;;;10.80;84.30;;;;;;4937000;29;20040;-74
2023/01/07 07:32:10;;;;;;;8.20;4.07;;;10.80;84.20;;;;;;4920409;29;20060;-74
2023/01/07 07:34:35;;;;;;;6.38;2.70;;;10.80;84.30;;;;;;4935010;29;20027;-74
2023/01/07 07:37:01;;;;;;;5.05;3.55;;;10.80;84.40;;;;;;4938105;29;20032;-74
2023/01/07 07:39:27;;;;;;;5.38;4.25;;;10.70;84.40;;;;;;4938310;29;20074;-74
2023/01/07 07:41:52;;;;;;;10.10;4.00;;;10.70;84.30;;;;;;4935311;29;20578;-74
2023/01/07 07:44:18;;;;;;;8.70;4.38;;;10.70;84.30;;;;;;4936348;29;20062;-76
2023/01/07 07:46:44;;;;;;;6.88;3.83;;;10.70;84.40;;;;;;4931237;29;20032;-79
2023/01/07 07:49:13;;;;;;;5.85;3.22;;;10.70;84.60;;;;;;4931185;29;20028;-75
2023/01/07 07:51:40;;;;;;;8.70;3.20;;;10.60;85.00;;;;;;4927554;29;20122;-75
2023/01/07 07:54:06;;;;;;;7.22;3.92;;;10.60;84.90;;;;;;4933986;29;20517;-75
2023/01/07 07:56:32;;;;;;;9.70;4.50;;;10.50;85.20;;;;;;4923463;29;20032;-75
2023/01/07 07:58:57;;;;;;;7.35;5.18;;;10.50;85.60;;;;;;4937102;29;20142;-75
2023/01/07 08:01:23;;;;;;;8.63;4.75;;;10.50;85.20;;;;;;4933845;29;21137;-76
2023/01/07 08:03:49;;;;;;;4.40;2.40;;;10.50;85.80;;;;;;4935660;29;20087;-75
2023/01/07 08:06:14;;;;;;;13.15;4.68;;;10.60;85.70;;;;;;4937046;29;20024;-73
2023/01/07 08:08:41;;;;;;;6.07;3.58;;;10.50;86.00;;;;;;4916253;29;20028;-73
2023/01/07 08:11:07;;;;;;;5.32;3.80;;;10.50;85.80;;;;;;4934571;29;20034;-75
2023/01/07 08:13:32;;;;;;;6.53;3.85;;;10.60;85.90;;;;;;4935893;29;20482;-74
2023/01/07 08:15:58;;;;;;;7.38;3.80;;;10.70;85.70;;;;;;4934601;29;20039;-73
2023/01/07 08:18:24;;;;;;;6.00;3.97;;;10.60;85.90;;;;;;4937287;29;20028;-73
2023/01/07 08:20:49;;;;;;;3.80;2.92;;;10.60;86.00;;;;;;4935268;29;20043;-74
2023/01/07 08:23:16;;;;;;;5.90;3.72;;;10.70;85.70;;;;;;4935211;29;20035;-74
2023/01/07 08:25:41;;;;;;;7.82;3.90;;;10.70;85.60;;;;;;4920066;29;20035;-74
2023/01/07 08:28:09;;;;;;;7.70;3.58;;;10.60;85.70;;;;;;4921211;29;20028;-74
2023/01/07 08:30:34;;;;;;;6.47;4.50;;;10.60;85.80;;;;;;4934180;29;20107;-74
2023/01/07 08:33:04;;;;;;;6.25;3.95;;;10.60;86.20;;;;;;4934031;29;20035;-74
2023/01/07 08:35:30;;;;;;;4.97;2.80;;;10.70;85.90;;;;;;4937398;29;20055;-74
2023/01/07 08:38:07;;;;;;;7.95;3.55;;;10.70;85.70;;;;;;4936771;29;20295;-74
2023/01/07 08:40:34;;;;;;;5.00;3.83;;;10.80;85.50;;;;;;4923005;29;20513;-74
2023/01/07 08:43:00;;;;;;;7.15;3.30;;;10.90;85.40;;;;;;4933897;29;20053;-74
2023/01/07 08:45:27;;;;;;;5.15;3.67;;;10.90;85.20;;;;;;4940542;29;20024;-74
2023/01/07 08:47:56;;;;;;;7.30;3.17;;;10.90;85.10;;;;;;4942466;29;20024;-74
2023/01/07 08:50:29;;;;;;;5.93;3.72;;;10.90;85.30;;;;;;4933140;29;20020;-74
2023/01/07 08:52:55;;;;;;;6.30;3.35;;;11.00;85.20;;;;;;4938687;29;20035;-73
2023/01/07 08:55:21;;;;;;;7.88;3.50;;;11.00;85.20;;;;;;4918821;29;20032;-73
2023/01/07 08:57:47;;;;;;;7.18;3.63;;;11.00;85.20;;;;;;4938866;29;20700;-73
2023/01/07 09:00:15;;;;;;;5.45;3.60;;;11.10;85.20;;;;;;4938917;29;20056;-73
2023/01/07 09:02:40;;;;;;;4.82;3.40;;;11.10;85.20;;;;;;4919137;29;20032;-74
2023/01/07 09:05:07;;;;;;;8.90;3.85;;;11.00;85.40;;;;;;4939265;29;20082;-75
2023/01/07 09:07:32;;;;;;;6.80;3.70;;;11.10;85.70;;;;;;4923703;29;20059;-74
2023/01/07 09:09:58;;;;;;;9.73;4.22;;;11.00;85.90;;;;;;4936174;29;20027;-74
2023/01/07 09:12:23;;;;;;;5.47;3.72;;;11.00;86.20;;;;;;4936349;29;20048;-74
2023/01/07 09:14:49;;;;;;;9.75;3.17;;;11.00;86.50;;;;;;4916493;29;20040;-74
2023/01/07 09:17:15;;;;;;;5.78;3.63;;;10.90;86.80;;;;;;4939894;29;20039;-74
2023/01/07 09:19:40;;;;;;;6.53;3.95;;;10.90;86.90;;;;;;4938643;29;20118;-74
2023/01/07 09:22:06;;;;;;;6.32;2.97;;;11.00;87.10;;;;;;4921618;29;20032;-73
2023/01/07 09:24:32;;;;;;;6.05;2.78;;;10.90;87.30;;;;;;4939999;29;20079;-74
2023/01/07 09:26:57;;;;;;;4.10;2.92;;;11.00;87.10;;;;;;4921997;29;20042;-74
2023/01/07 09:29:23;;;;;;;5.22;2.92;;;11.00;87.40;;;;;;4922959;29;20028;-74
2023/01/07 09:31:49;;;;;;;7.88;3.13;;;11.00;87.20;;;;;;4937114;29;20088;-74
2023/01/07 09:34:14;;;;;;;5.90;2.90;;;11.00;87.40;;;;;;4940189;29;20079;-74
2023/01/07 09:36:40;;;;;;;7.10;2.80;;;10.90;87.50;;;;;;4922977;29;20046;-74
2023/01/07 09:39:06;;;;;;;2.72;2.25;;;11.00;87.60;;;;;;4935437;29;20489;-74
2023/01/07 09:41:34;;;;;;;5.13;2.22;;;11.00;87.70;;;;;;4940103;29;20035;-74
2023/01/07 09:44:14;;;;;;;2.88;2.17;;;11.00;87.70;;;;;;4939848;29;20027;-74
2023/01/07 09:46:42;;;;;;;5.18;3.70;;;11.00;87.80;;;;;;4938771;29;20031;-74
2023/01/07 09:49:16;;;;;;;4.38;1.77;;;11.10;87.90;;;;;;4919910;29;20083;-74
2023/01/07 09:51:50;;;;;;;3.38;2.13;;;11.20;87.80;;;;;;4937777;29;20031;-74
2023/01/07 09:54:32;;;;;;;3.38;2.60;;;11.20;87.80;;;;;;4937934;29;20032;-74
2023/01/07 09:56:58;;;;;;;4.38;2.08;;;11.20;87.70;;;;;;4938242;29;20054;-73
2023/01/07 09:59:24;;;;;;;4.85;2.67;;;11.20;88.00;;;;;;4939578;29;20028;-74
2023/01/07 10:01:58;;;;;;;6.63;2.42;;;11.20;88.00;;;;;;4935025;29;20027;-74
2023/01/07 10:04:41;;;;;;;3.17;1.85;;;11.30;87.80;;;;;;4938156;29;20031;-74
2023/01/07 10:07:06;;;;;;;6.70;2.47;;;11.30;87.80;;;;;;4919674;29;20064;-74
2023/01/07 10:09:56;;;;;;;2.97;2.03;;;11.30;87.60;;;;;;4938255;29;20032;-74
2023/01/07 10:12:42;;;;;;;7.72;2.75;;;11.40;87.30;;;;;;4937990;29;20039;-74
2023/01/07 10:15:10;;;;;;;3.83;2.05;;;11.40;87.30;;;;;;4935364;29;20422;-74
2023/01/07 10:17:46;;;;;;;5.22;2.35;;;11.40;87.20;;;;;;4938578;29;20090;-74
2023/01/07 10:20:26;;;;;;;3.85;1.85;;;11.50;87.30;;;;;;4918282;29;20025;-74
2023/01/07 10:23:18;;;;;;;3.40;1.85;;;11.60;87.20;;;;;;4920805;29;20082;-74
2023/01/07 10:25:51;;;;;;;3.08;1.67;;;11.60;87.00;;;;;;4918778;29;20139;-74
2023/01/07 10:28:31;;;;;;;4.68;2.33;;;11.70;86.90;;;;;;4934290;29;20430;-74
2023/01/07 10:30:59;;;;;;;5.13;2.00;;;11.70;86.70;;;;;;4936145;29;20059;-74
2023/01/07 10:33:31;;;;;;;8.93;2.75;;;11.70;86.40;;;;;;4937923;29;20050;-74
2023/01/07 10:36:37;;;;;;;6.32;2.40;;;11.80;86.20;;;;;;4937889;29;20036;-74
2023/01/07 10:39:30;;;;;;;4.53;1.98;;;11.80;86.00;;;;;;4854554;29;20037;-75
2023/01/07 10:42:14;;;;;;;11.48;2.10;;;11.80;85.70;;;;;;4920171;29;20024;-75
2023/01/07 10:44:48;;;;;;;2.63;1.70;;;11.80;85.80;;;;;;4919257;29;20115;-75
2023/01/07 10:47:35;;;;;;;9.57;2.17;;;11.80;85.70;;;;;;4933946;29;20024;-76
2023/01/07 10:50:19;;;;;;;4.32;2.10;;;11.90;85.60;;;;;;4937715;29;20039;-74
2023/01/07 10:53:17;;;;;;;7.70;2.28;;;12.00;85.20;;;;;;4930007;29;20028;-75
2023/01/07 10:56:20;;;;;;;6.07;1.88;;;12.10;85.20;;;;;;4919898;29;20035;-75
2023/01/07 10:58:48;;;;;;;4.07;1.98;;;12.10;85.10;;;;;;4919882;29;20256;-74
2023/01/07 11:01:24;;;;;;;2.95;1.65;;;12.20;85.10;;;;;;4936474;29;20028;-86
2023/01/07 11:03:52;;;;;;;6.20;2.05;;;12.20;84.70;;;;;;4936014;29;20071;-87
2023/01/07 11:06:29;;;;;;;3.42;1.92;;;12.20;84.90;;;;;;4918748;29;20031;-85
2023/01/07 11:08:54;;;;;;;7.40;2.13;;;12.30;84.70;;;;;;4935261;29;20039;-80
2023/01/07 11:11:23;;;;;;;7.80;2.35;;;12.40;84.60;;;;;;4927478;29;20064;-90
2023/01/07 11:14:03;;;;;;;3.78;1.50;;;12.50;84.50;;;;;;4919121;29;20047;-82
2023/01/07 11:16:35;;;;;;;3.35;1.83;;;12.70;84.30;;;;;;4921619;29;20028;-90
2023/01/07 11:19:05;;;;;;;2.60;1.40;;;12.70;84.20;;;;;;4928774;29;20040;-81
2023/01/07 11:21:36;;;;;;;3.72;2.13;;;12.60;84.00;;;;;;4920160;29;20028;-80
2023/01/07 11:24:22;;;;;;;4.95;1.88;;;12.60;84.20;;;;;;4920830;29;20041;-85
2023/01/07 11:26:48;;;;;;;6.72;1.90;;;12.60;84.40;;;;;;4918975;29;20028;-77
2023/01/07 11:29:26;;;;;;;8.10;2.67;;;12.60;84.40;;;;;;4931557;29;20109;-79
2023/01/07 11:31:57;;;;;;;4.30;1.88;;;12.60;84.60;;;;;;4927088;29;20052;-77
2023/01/07 11:34:37;;;;;;;9.07;2.20;;;12.60;84.50;;;;;;4927737;29;20036;-78
2023/01/07 11:37:04;;;;;;;5.22;2.40;;;12.60;84.50;;;;;;4930348;29;20034;-79
2023/01/07 11:39:33;;;;;;;9.20;2.83;;;12.60;84.50;;;;;;4929124;29;20048;-77
2023/01/07 11:45:16;;;;;;;5.55;1.80;;;12.70;84.50;;;;;;4926223;29;20035;-77
2023/01/07 11:47:50;;;;;;;5.40;1.83;;;12.70;84.60;;;;;;4925969;29;20066;-76
2023/01/07 11:50:26;;;;;;;4.38;1.90;;;12.70;84.50;;;;;;4927155;29;20070;-77
2023/01/07 11:53:19;;;;;;;6.32;1.92;;;12.80;84.40;;;;;;4924752;29;20031;-79
2023/01/07 11:56:06;;;;;;;10.13;2.85;;;12.80;84.30;;;;;;4915018;29;20039;-80
2023/01/07 11:58:41;;;;;;;9.13;2.63;;;12.80;84.00;;;;;;4938227;29;20036;-84
2023/01/07 12:01:06;;;;;;;6.40;2.00;;;12.80;84.00;;;;;;4915225;29;20027;-77
2023/01/07 12:03:33;;;;;;;6.13;2.40;;;12.90;83.90;;;;;;4937030;29;20491;-77
2023/01/07 12:06:24;;;;;;;4.68;2.63;;;12.90;83.70;;;;;;4920308;29;20114;-78
2023/01/07 12:09:17;;;;;;;9.98;2.53;;;13.00;83.70;;;;;;4922762;29;20046;-78
2023/01/07 12:11:44;;;;;;;3.92;2.42;;;13.00;83.60;;;;;;4920674;29;20091;-86
2023/01/07 12:14:22;;;;;;;8.25;2.38;;;13.00;83.60;;;;;;4917699;29;20036;-81
2023/01/07 12:16:50;;;;;;;9.23;2.45;;;13.00;83.80;;;;;;4935881;29;20284;-80
2023/01/07 12:19:32;;;;;;;10.07;1.83;;;13.00;84.00;;;;;;4938472;29;20257;-78
2023/01/07 12:22:00;;;;;;;4.85;1.98;;;13.00;84.10;;;;;;4939408;29;20035;-80
2023/01/07 12:24:56;;;;;;;6.97;2.45;;;13.10;84.30;;;;;;4942533;29;20106;-79
2023/01/07 12:27:37;;;;;;;5.97;2.10;;;13.10;84.60;;;;;;4911118;29;20043;-80
2023/01/07 12:30:32;;;;;;;4.63;2.15;;;13.10;84.80;;;;;;4931368;29;20063;-86
2023/01/07 12:33:30;;;;;;;6.22;2.05;;;13.00;85.20;;;;;;4936038;29;20741;-79
2023/01/07 12:36:01;;;;;;;5.15;1.45;;;13.00;85.40;;;;;;4939814;29;20394;-78
2023/01/07 12:38:49;;;;;;;3.58;2.03;;;13.00;85.60;;;;;;4934376;29;20131;-79
2023/01/07 12:41:22;;;;;;;6.35;1.70;;;13.00;85.70;;;;;;4939962;29;20116;-80
2023/01/07 12:44:01;;;;;;;6.82;2.10;;;12.90;85.90;;;;;;4938493;29;20035;-88
2023/01/07 12:46:39;;;;;;;6.72;3.35;;;12.90;85.90;;;;;;4942406;29;20390;-79
2023/01/07 12:49:20;;;;;;;2.38;1.63;;;12.90;86.00;;;;;;4929105;29;20027;-78
2023/01/07 12:52:30;;;;;;;3.45;1.60;;;12.90;86.10;;;;;;4933602;29;20422;-78
2023/01/07 12:55:17;;;;;;;5.88;2.78;;;12.90;86.30;;;;;;4860081;29;20040;-77
2023/01/07 12:57:53;;;;;;;4.28;1.60;;;12.90;86.60;;;;;;4860967;29;20040;-79
2023/01/07 13:00:27;;;;;;;4.60;1.90;;;12.80;86.70;;;;;;4907825;29;20040;-78
2023/01/07 13:02:58;;;;;;;3.65;1.65;;;12.90;86.70;;;;;;4939012;29;20032;-77
2023/01/07 13:05:46;;;;;;;3.08;1.20;;;12.90;86.80;;;;;;4936957;29;20056;-78
2023/01/07 13:08:41;;;;;;;4.07;1.60;;;12.90;86.90;;;;;;4924766;29;20522;-78
2023/01/07 13:14:22;;;;;;;4.20;1.50;;;12.90;87.20;;;;;;4938284;29;20520;-78
2023/01/07 13:16:48;;;;;;;2.15;1.33;;;12.80;88.10;;;;;;4937618;29;20073;-76
2023/01/07 13:19:14;;;;;;;4.78;1.42;;;12.90;87.70;;;;;;4935364;29;20491;-83
2023/01/07 13:21:42;;;;;;;5.18;1.75;;;12.90;87.70;;;;;;4939064;29;20072;-78
2023/01/07 13:24:08;;;;;;;2.60;1.80;;;13.00;87.70;;;;;;4927659;29;20016;-79
2023/01/07 13:26:46;;;;;;;8.73;2.42;;;13.00;87.60;;;;;;4931360;29;20675;-78
2023/01/07 13:29:37;;;;;;;4.65;2.00;;;13.10;87.60;;;;;;4938323;29;20074;-77
2023/01/07 13:32:21;;;;;;;4.50;2.15;;;13.10;87.50;;;;;;4937771;29;20044;-78
2023/01/07 13:35:11;;;;;;;4.20;1.77;;;13.20;87.30;;;;;;4932537;29;20027;-84
2023/01/07 13:37:39;;;;;;;5.82;1.85;;;13.20;87.20;;;;;;4918532;29;20032;-78
2023/01/07 13:40:26;;;;;;;4.57;1.88;;;13.30;87.00;;;;;;4939275;29;20053;-77
2023/01/07 13:42:54;;;;;;;6.55;1.77;;;13.40;86.80;;;;;;4937092;29;20034;-78
2023/01/07 13:45:26;;;;;;;4.07;1.35;;;13.60;86.40;;;;;;4938793;29;20024;-78
2023/01/07 13:47:58;;;;;;;3.92;1.88;;;13.70;86.20;;;;;;4934289;29;20067;-78
2023/01/07 13:50:35;;;;;;;6.60;1.67;;;13.70;86.00;;;;;;4939152;29;20028;-78
2023/01/07 13:53:05;;;;;;;3.58;1.20;;;13.70;85.90;;;;;;4938434;29;20062;-78
2023/01/07 13:55:40;;;;;;;2.75;1.20;;;13.70;85.90;;;;;;4937364;29;20034;-78
2023/01/07 13:58:44;;;;;;;4.93;2.55;;;13.70;85.60;;;;;;4937288;29;20047;-78
2023/01/07 14:01:15;;;;;;;6.43;1.50;;;13.60;85.40;;;;;;4935462;29;20035;-78
2023/01/07 14:03:49;;;;;;;8.23;2.03;;;13.70;85.40;;;;;;4938970;29;20050;-78
2023/01/07 14:06:17;;;;;;;4.85;1.83;;;13.70;85.10;;;;;;4934743;29;20020;-78
2023/01/07 14:08:50;;;;;;;4.88;1.17;;;13.70;85.10;;;;;;4937797;29;20040;-78
2023/01/07 14:11:18;;;;;;;6.75;2.55;;;13.80;84.80;;;;;;4928203;29;20024;-78
2023/01/07 14:13:49;;;;;;;2.55;1.60;;;13.90;84.70;;;;;;4933194;29;20048;-77
2023/01/07 14:16:25;;;;;;;5.78;1.50;;;13.80;84.20;;;;;;4936780;29;20525;-78
2023/01/07 14:18:54;;;;;;;5.65;1.05;;;13.80;83.90;;;;;;4937341;29;20151;-79
2023/01/07 14:21:54;;;;;;;4.70;1.33;;;13.70;83.30;;;;;;4937544;29;20027;-80
2023/01/07 14:24:50;;;;;;;4.77;1.10;;;13.70;83.30;;;;;;4938157;29;20027;-79
2023/01/07 14:27:48;;;;;;;3.72;1.67;;;13.70;83.00;;;;;;4921230;29;20695;-78
2023/01/07 14:30:24;;;;;;;9.55;1.60;;;13.60;82.80;;;;;;4904062;29;20044;-79
2023/01/07 14:33:04;;;;;;;3.25;1.23;;;13.60;82.40;;;;;;4935620;29;20032;-80
2023/01/07 14:35:39;;;;;;;6.72;1.23;;;13.50;79.20;;;;;;4920341;29;20032;-79
2023/01/07 14:38:32;;;;;;;4.88;1.40;;;13.40;78.80;;;;;;4937310;29;20027;-79
2023/01/07 14:41:14;;;;;;;3.70;1.30;;;13.40;78.70;;;;;;4935791;29;20039;-79
2023/01/07 14:43:44;;;;;;;2.30;1.23;;;13.60;78.10;;;;;;4934401;29;20028;-79
2023/01/07 14:46:22;;;;;;;2.63;1.77;;;13.70;77.20;;;;;;4920373;29;20505;-80
2023/01/07 14:49:00;;;;;;;4.72;1.00;;;13.70;77.20;;;;;;4937742;29;20071;-79
2023/01/07 14:51:50;;;;;;;5.95;1.10;;;13.70;76.70;;;;;;4935699;29;20039;-80
2023/01/07 14:54:29;;;;;;;3.38;1.25;;;13.60;77.10;;;;;;4916163;29;20372;-79
2023/01/07 14:57:18;;;;;;;7.22;1.75;;;13.60;77.20;;;;;;4929846;29;20043;-79
2023/01/07 15:00:10;;;;;;;4.70;1.20;;;13.60;78.00;;;;;;4937554;29;20550;-80
2023/01/07 15:03:04;;;;;;;3.92;1.38;;;13.70;78.00;;;;;;4933260;29;20099;-79
2023/01/07 15:06:04;;;;;;;7.88;1.55;;;13.60;78.20;;;;;;4935184;29;20510;-79
2023/01/07 15:17:05;;;;;;;;;;;13.30;78.50;;;;;;4936688;29;20039;-79
2023/01/07 15:19:36;;;;;;;7.30;1.90;;;13.30;78.70;;;;;;4921084;29;19910;-79
2023/01/07 15:22:18;;;;;;;7.20;1.60;;;13.30;78.90;;;;;;4920635;29;20478;-80
2023/01/07 15:25:06;;;;;;;12.07;2.35;;;13.30;78.80;;;;;;4918058;29;20028;-79
2023/01/07 15:28:05;;;;;;;7.00;1.30;;;13.20;79.10;;;;;;4931654;29;20391;-79
2023/01/07 15:30:46;;;;;;;6.97;1.93;;;13.20;79.30;;;;;;4889778;29;20079;-79
2023/01/07 15:33:41;;;;;;;10.68;2.42;;;13.20;79.40;;;;;;4936359;29;20368;-79
2023/01/07 15:36:11;;;;;;;9.77;2.28;;;13.20;79.20;;;;;;4936828;29;20131;-80
2023/01/07 15:38:53;;;;;;;7.97;2.13;;;13.20;79.50;;;;;;4933527;29;20127;-77
2023/01/07 15:41:30;;;;;;;8.05;1.50;;;13.20;79.80;;;;;;4936580;29;20023;-79
2023/01/07 15:43:58;;;;;;;8.43;2.25;;;13.20;79.80;;;;;;4920874;29;20059;-79
2023/01/07 15:46:25;;;;;;;4.78;1.48;;;13.20;79.80;;;;;;4916643;29;20020;-78
2023/01/07 15:49:14;;;;;;;6.40;2.08;;;13.20;79.80;;;;;;4918644;29;20059;-78
2023/01/07 15:51:43;;;;;;;9.32;1.88;;;13.20;79.90;;;;;;4933316;29;20027;-80
2023/01/07 15:54:29;;;;;;;7.50;1.60;;;13.20;79.70;;;;;;4937844;29;20035;-77
2023/01/07 15:57:19;;;;;;;5.43;1.65;;;13.20;79.80;;;;;;4919945;29;20110;-77
2023/01/07 15:59:49;;;;;;;5.82;1.75;;;13.20;79.80;;;;;;4934128;29;20522;-77
2023/01/07 16:02:29;;;;;;;8.38;2.35;;;13.20;79.50;;;;;;4929535;29;20019;-77
2023/01/07 16:05:03;;;;;;;8.57;1.98;;;13.20;78.90;;;;;;4936716;29;20090;-77
2023/01/07 16:07:31;;;;;;;12.45;2.25;;;13.20;78.80;;;;;;4935702;29;20050;-76
2023/01/07 16:09:58;;;;;;;13.63;2.25;;;13.10;78.40;;;;;;4920481;29;20130;-77
2023/01/07 16:12:26;;;;;;;13.43;2.38;;;13.10;78.20;;;;;;4886679;29;20023;-78
2023/01/07 16:14:52;;;;;;;7.88;2.17;;;13.00;78.60;;;;;;4929059;29;20042;-78
2023/01/07 16:17:18;;;;;;;7.88;1.98;;;13.00;78.00;;;;;;4933643;29;20111;-80
2023/01/07 16:19:44;;;;;;;7.45;2.20;;;13.00;77.80;;;;;;4932676;29;20024;-78
2023/01/07 16:22:21;;;;;;;5.55;1.60;;;13.00;77.90;;;;;;4934257;29;20039;-81
2023/01/07 16:25:02;;;;;;;;;;;;;;;;;;;;;
2023/01/07 16:27:30;;;;;;;8.07;2.13;;;12.90;77.80;;;;;;4927919;29;20027;-79
2023/01/07 16:29:58;;;;;;;13.60;2.50;;;12.90;78.00;;;;;;4936466;29;20466;-80
2023/01/07 16:32:24;;;;;;;16.00;2.60;;;12.90;78.10;;;;;;4933840;29;20086;-83
2023/01/07 16:34:56;;;;;;;12.93;2.28;;;12.90;78.10;;;;;;4936733;29;20082;-84
2023/01/07 16:37:22;;;;;;;13.48;2.08;;;12.90;78.40;;;;;;4928661;29;20036;-81
2023/01/07 16:39:50;;;;;;;8.45;2.40;;;12.90;78.30;;;;;;4935532;29;20036;-80
2023/01/07 16:42:26;;;;;;;7.60;3.42;;;12.80;78.10;;;;;;4918341;29;20151;-76
2023/01/07 16:44:51;;;;;;;7.63;2.33;;;12.80;77.90;;;;;;4924906;29;20036;-77
2023/01/07 16:47:30;;;;;;;13.60;2.90;;;12.80;78.20;;;;;;4933623;29;20063;-79
2023/01/07 16:50:15;;;;;;;9.55;2.00;;;12.80;78.00;;;;;;4916951;29;20077;-79
2023/01/07 16:53:33;;;;;;;12.27;1.98;;;12.80;78.00;;;;;;4933555;29;20024;-79
2023/01/07 16:56:12;;;;;;;12.82;2.50;;;12.70;77.70;;;;;;4916431;29;20035;-85
2023/01/07 16:59:04;;;;;;;14.00;2.78;;;12.80;77.50;;;;;;4929599;29;20023;-79
2023/01/07 17:01:32;;;;;;;11.85;2.30;;;12.70;77.60;;;;;;4931803;29;20028;-80
2023/01/07 17:04:05;;;;;;;9.52;2.83;;;12.80;77.60;;;;;;4935879;29;20518;-87
2023/01/07 17:06:38;;;;;;;14.50;2.70;;;12.60;77.30;;;;;;4939267;29;20024;-84
2023/01/07 17:09:05;;;;;;;13.95;2.97;;;12.60;77.80;;;;;;4932057;29;20023;-80
2023/01/07 17:11:33;;;;;;;13.85;3.25;;;12.50;78.10;;;;;;4935960;29;20028;-84
2023/01/07 17:13:59;;;;;;;7.05;1.75;;;12.50;78.60;;;;;;4931869;29;20046;-81
2023/01/07 17:16:32;;;;;;;8.05;2.60;;;12.50;78.70;;;;;;4937232;29;20028;-86
2023/01/07 17:19:25;;;;;;;16.67;3.22;;;12.40;79.00;;;;;;4937217;29;20036;-85
2023/01/07 17:21:51;;;;;;;9.35;2.45;;;12.40;78.90;;;;;;4898139;29;20438;-84
2023/01/07 17:24:39;;;;;;;15.40;2.50;;;12.40;79.10;;;;;;4909409;29;20040;-82
2023/01/07 17:27:17;;;;;;;13.70;3.33;;;12.30;79.10;;;;;;4936563;29;20196;-79
2023/01/07 17:29:43;;;;;;;10.15;2.35;;;12.40;79.10;;;;;;4935068;29;20039;-86
2023/01/07 17:32:13;;;;;;;7.38;2.53;;;12.40;79.10;;;;;;4921069;29;20072;-80
2023/01/07 17:34:39;;;;;;;10.00;1.92;;;12.40;79.10;;;;;;4936302;29;20028;-85
2023/01/07 17:37:05;;;;;;;12.43;2.22;;;12.30;79.00;;;;;;4935050;29;20039;-86
2023/01/07 17:39:30;;;;;;;11.15;2.35;;;12.30;79.00;;;;;;4921475;29;20024;-82
2023/01/07 17:44:40;;;;;;;12.15;2.58;;;12.30;78.90;;;;;;4936425;29;20116;-81
2023/01/07 17:47:20;;;;;;;16.90;2.95;;;12.30;79.20;;;;;;4930330;29;20051;-84
2023/01/07 17:49:46;;;;;;;15.70;2.83;;;12.30;79.10;;;;;;4938186;29;20414;-80
2023/01/07 17:52:12;;;;;;;13.82;2.88;;;12.30;78.90;;;;;;4938663;29;20038;-85
2023/01/07 17:54:39;;;;;;;13.43;3.47;;;12.30;78.60;;;;;;4938473;29;20078;-84
2023/01/07 17:57:04;;;;;;;7.20;2.72;;;12.30;78.50;;;;;;4934556;29;20024;-75
2023/01/07 17:59:30;;;;;;;10.10;2.47;;;12.30;78.30;;;;;;4933985;29;20034;-77
2023/01/07 18:01:57;;;;;;;14.05;3.35;;;12.40;78.10;;;;;;4936381;29;20063;-82
2023/01/07 18:04:23;;;;;;;12.00;3.20;;;12.30;77.80;;;;;;4920398;29;20129;-79
2023/01/07 18:06:49;;;;;;;15.52;2.63;;;12.30;78.20;;;;;;4920847;29;20407;-84
2023/01/07 18:09:14;;;;;;;17.85;4.88;;;12.30;77.70;;;;;;4920002;29;20635;-85
2023/01/07 18:14:28;;;;;;;8.35;2.88;;;12.30;77.90;;;;;;4938185;29;20565;-78
2023/01/07 18:16:53;;;;;;;10.77;2.30;;;12.20;77.80;;;;;;4918373;29;20032;-81
2023/01/07 18:19:19;;;;;;;7.10;2.75;;;12.10;77.90;;;;;;4933613;29;20104;-82
2023/01/07 18:21:45;;;;;;;18.88;3.92;;;12.20;77.90;;;;;;4934554;29;20115;-79
2023/01/07 18:24:23;;;;;;;10.10;2.78;;;12.20;78.00;;;;;;4935866;29;20068;-82
2023/01/07 18:26:49;;;;;;;11.38;2.90;;;12.10;77.90;;;;;;4937520;29;20426;-78
2023/01/07 18:29:15;;;;;;;10.55;2.42;;;12.10;78.10;;;;;;4934771;29;20031;-76
2023/01/07 18:31:43;;;;;;;15.43;3.25;;;12.10;77.80;;;;;;4937658;29;20054;-78
2023/01/07 18:34:11;;;;;;;14.57;2.97;;;12.10;77.60;;;;;;4936005;29;20027;-78
2023/01/07 18:36:37;;;;;;;5.63;2.42;;;12.10;77.80;;;;;;4932868;29;20832;-78
2023/01/07 18:39:04;;;;;;;16.88;2.28;;;12.00;77.50;;;;;;4935533;29;20032;-86
2023/01/07 18:41:32;;;;;;;17.33;2.70;;;12.00;77.80;;;;;;4914051;29;20040;-82
2023/01/07 18:43:58;;;;;;;12.10;2.90;;;12.00;77.70;;;;;;4934667;29;20035;-81
2023/01/07 18:46:23;;;;;;;9.02;3.13;;;12.00;77.60;;;;;;4930497;29;20023;-78
2023/01/07 18:48:49;;;;;;;12.07;2.42;;;12.00;77.80;;;;;;4926125;29;20056;-76
2023/01/07 18:51:15;;;;;;;8.27;2.03;;;12.00;77.70;;;;;;4927632;29;20024;-76
2023/01/07 18:53:41;;;;;;;14.20;3.80;;;12.00;77.60;;;;;;4938118;29;20074;-78
2023/01/07 18:56:10;;;;;;;10.02;2.08;;;12.10;77.70;;;;;;4919752;29;20067;-76
2023/01/07 18:58:37;;;;;;;10.35;3.13;;;12.10;77.70;;;;;;4933615;29;20035;-76
2023/01/07 19:01:06;;;;;;;15.55;2.47;;;12.00;77.60;;;;;;4918707;29;20651;-76
2023/01/07 19:03:31;;;;;;;18.98;2.97;;;12.00;77.60;;;;;;4938854;29;20100;-76